createdAt,value
2022-08-24T00:01:47.047Z,29.74
2022-08-24T00:04:15.354Z,30.14
2022-08-24T00:06:45.586Z,29.66
2022-08-24T00:09:13.547Z,30.22
2022-08-24T00:11:41.746Z,30.28
2022-08-24T00:14:12.141Z,30.25
2022-08-24T00:16:40.795Z,30.49
2022-08-24T00:19:08.873Z,30.21
2022-08-24T00:21:36.953Z,29.97
2022-08-24T00:24:05.522Z,30.52
2022-08-24T00:26:33.846Z,30.26
2022-08-24T00:29:06.834Z,30.65
2022-08-24T00:31:37.370Z,30.25
2022-08-24T00:34:05.524Z,30.59
2022-08-24T00:36:33.725Z,30.43
2022-08-24T00:39:02.442Z,30.38
2022-08-24T00:41:30.607Z,30.37
2022-08-24T00:43:59.898Z,30.89
2022-08-24T00:46:30.632Z,30.67
2022-08-24T00:49:02.892Z,31.03
2022-08-24T00:51:32.416Z,30.98
2022-08-24T00:54:03.738Z,31.44
2022-08-24T00:56:34.587Z,31.14
2022-08-24T00:59:04.696Z,31.64
2022-08-24T01:01:34.862Z,31.16
2022-08-24T01:04:05.549Z,31.44
2022-08-24T01:06:34.105Z,31.42
2022-08-24T01:09:02.182Z,31.58
2022-08-24T01:11:33.946Z,31.16
2022-08-24T01:14:03.395Z,31.18
2022-08-24T01:16:48.509Z,31.46
2022-08-24T01:19:26.678Z,31.04
2022-08-24T01:21:59.447Z,31.42
2022-08-24T01:24:29.077Z,31.51
2022-08-24T01:26:57.155Z,31.88
2022-08-24T01:29:27.756Z,31.47
2022-08-24T01:31:56.158Z,31.57
2022-08-24T01:34:24.426Z,31.42
2022-08-24T01:36:56.090Z,31.30
2022-08-24T01:39:26.328Z,31.40
2022-08-24T01:41:56.121Z,31.81
2022-08-24T01:44:25.145Z,31.54
2022-08-24T01:46:55.023Z,32.19
2022-08-24T01:49:24.294Z,31.79
2022-08-24T01:51:52.402Z,32.13
2022-08-24T01:54:20.453Z,32.43
2022-08-24T01:56:48.475Z,32.01
2022-08-24T01:59:19.498Z,32.22
2022-08-24T02:01:51.340Z,32.48
2022-08-24T02:04:20.338Z,32.20
2022-08-24T02:06:49.505Z,32.74
2022-08-24T02:09:18.437Z,32.12
2022-08-24T02:11:46.865Z,32.52
2022-08-24T02:14:15.066Z,32.48
2022-08-24T02:16:44.946Z,32.76
2022-08-24T02:19:13.765Z,33.06
2022-08-24T02:21:41.831Z,33.15
2022-08-24T02:24:09.911Z,33.22
2022-08-24T02:26:38.113Z,33.00
2022-08-24T02:29:06.194Z,33.17
2022-08-24T02:31:34.468Z,33.54
2022-08-24T02:34:04.189Z,33.43
2022-08-24T02:36:50.719Z,33.36
2022-08-24T02:39:20.961Z,33.04
2022-08-24T02:41:50.374Z,33.38
2022-08-24T02:44:20.486Z,33.22
2022-08-24T02:46:49.340Z,33.36
2022-08-24T02:49:21.448Z,33.25
2022-08-24T02:51:50.733Z,33.58
2022-08-24T02:54:21.452Z,33.16
2022-08-24T02:56:52.415Z,33.24
2022-08-24T02:59:21.096Z,33.48
2022-08-24T03:01:50.358Z,34.28
2022-08-24T03:04:21.820Z,33.94
2022-08-24T03:06:49.902Z,34.03
2022-08-24T03:09:18.222Z,33.87
2022-08-24T03:15:40.259Z,34.42
2022-08-24T03:18:08.515Z,34.43
2022-08-24T03:20:38.269Z,34.39
2022-08-24T03:23:06.589Z,34.10
2022-08-24T03:25:34.705Z,34.44
2022-08-24T03:28:04.194Z,34.29
2022-08-24T03:30:39.367Z,33.92
2022-08-24T03:33:12.043Z,34.69
2022-08-24T03:35:41.893Z,34.66
2022-08-24T03:38:13.802Z,34.27
2022-08-24T03:40:43.083Z,34.24
2022-08-24T03:43:31.330Z,33.90
2022-08-24T03:46:02.008Z,34.39
2022-08-24T03:48:30.130Z,34.17
2022-08-24T03:51:00.019Z,34.63
2022-08-24T03:53:28.574Z,34.05
2022-08-24T03:55:56.772Z,34.14
2022-08-24T03:58:24.972Z,34.18
2022-08-24T04:00:56.426Z,34.55
2022-08-24T04:03:24.858Z,34.49
2022-08-24T04:05:55.218Z,34.15
2022-08-24T04:08:25.595Z,33.92
2022-08-24T04:10:54.381Z,34.61
2022-08-24T04:13:22.723Z,34.42
2022-08-24T04:15:53.077Z,34.56
2022-08-24T04:18:23.792Z,34.31
2022-08-24T04:20:54.989Z,34.40
2022-08-24T04:23:23.317Z,34.26
2022-08-24T04:26:03.512Z,34.31
2022-08-24T04:28:32.552Z,34.77
2022-08-24T04:31:00.917Z,34.61
2022-08-24T04:33:39.639Z,34.70
2022-08-24T04:36:09.159Z,35.34
2022-08-24T04:38:40.976Z,35.49
2022-08-24T04:41:45.918Z,35.23
2022-08-24T04:44:16.964Z,35.43
2022-08-24T04:46:45.172Z,35.02
2022-08-24T04:49:13.627Z,35.35
2022-08-24T04:51:41.938Z,35.27
2022-08-24T04:54:10.611Z,35.25
2022-08-24T04:56:39.534Z,35.23
2022-08-24T04:59:09.652Z,35.28
2022-08-24T05:01:38.000Z,35.08
2022-08-24T05:04:07.273Z,35.22
2022-08-24T05:06:35.706Z,35.33
2022-08-24T05:09:04.860Z,35.34
2022-08-24T05:11:33.236Z,35.61
2022-08-24T05:14:01.882Z,35.32
2022-08-24T05:16:34.299Z,35.29
2022-08-24T05:19:03.910Z,35.55
2022-08-24T05:21:31.991Z,35.68
2022-08-24T05:24:00.799Z,35.57
2022-08-24T05:26:32.952Z,36.08
2022-08-24T05:29:02.847Z,35.96
2022-08-24T05:31:50.123Z,35.78
2022-08-24T05:34:18.840Z,36.02
2022-08-24T05:36:50.246Z,35.74
2022-08-24T05:39:33.681Z,36.25
2022-08-24T05:42:06.801Z,36.16
2022-08-24T05:44:37.762Z,35.98
2022-08-24T05:47:07.805Z,36.20
2022-08-24T05:49:40.768Z,35.71
2022-08-24T05:52:10.418Z,36.00
2022-08-24T05:54:38.851Z,35.66
2022-08-24T05:57:07.055Z,35.97
2022-08-24T05:59:41.854Z,36.19
2022-08-24T06:02:17.457Z,36.15
2022-08-24T06:04:47.025Z,36.54
2022-08-24T06:07:14.980Z,35.59
2022-08-24T06:09:48.117Z,36.01
2022-08-24T06:12:16.313Z,35.57
2022-08-24T06:14:47.935Z,35.84
2022-08-24T06:17:22.173Z,35.46
2022-08-24T06:19:52.555Z,35.16
2022-08-24T06:22:20.633Z,35.09
2022-08-24T06:25:06.355Z,35.43
2022-08-24T06:27:35.770Z,35.09
2022-08-24T06:30:07.195Z,35.04
2022-08-24T06:33:07.558Z,34.16
2022-08-24T06:35:46.782Z,34.22
2022-08-24T06:38:15.599Z,34.01
2022-08-24T06:40:46.446Z,34.09
2022-08-24T06:43:15.007Z,34.25
2022-08-24T06:45:54.969Z,33.61
2022-08-24T06:48:30.622Z,33.13
2022-08-24T06:50:59.288Z,33.66
2022-08-24T06:53:27.853Z,33.32
2022-08-24T06:55:58.931Z,33.82
2022-08-24T06:58:28.826Z,33.90
2022-08-24T07:00:57.374Z,34.09
2022-08-24T07:03:26.775Z,33.73
2022-08-24T07:06:09.030Z,34.03
2022-08-24T07:08:42.412Z,33.96
2022-08-24T07:11:12.383Z,33.80
2022-08-24T07:13:40.350Z,33.55
2022-08-24T07:16:10.110Z,33.35
2022-08-24T07:18:40.888Z,33.19
2022-08-24T07:21:11.669Z,32.96
2022-08-24T07:23:47.790Z,32.35
2022-08-24T07:26:21.519Z,32.30
2022-08-24T07:28:53.193Z,32.09
2022-08-24T07:31:22.582Z,31.86
2022-08-24T07:33:58.721Z,31.30
2022-08-24T07:36:28.691Z,30.30
2022-08-24T07:38:57.472Z,29.18
2022-08-24T07:44:18.410Z,29.49
2022-08-24T07:46:47.038Z,29.64
2022-08-24T07:49:33.115Z,28.97
2022-08-24T07:52:06.895Z,29.18
2022-08-24T07:54:36.060Z,28.95
2022-08-24T07:57:06.694Z,27.18
2022-08-24T07:59:35.581Z,28.45
2022-08-24T08:02:05.222Z,27.61
2022-08-24T08:04:33.314Z,28.11
2022-08-24T08:07:02.232Z,28.18
2022-08-24T08:09:34.622Z,28.03
2022-08-24T08:12:02.700Z,28.40
2022-08-24T08:14:31.630Z,27.96
2022-08-24T08:17:00.080Z,27.96
2022-08-24T08:19:28.147Z,27.88
2022-08-24T08:22:22.035Z,27.76
2022-08-24T08:25:10.151Z,27.51
2022-08-24T08:27:38.871Z,27.53
2022-08-24T08:30:07.515Z,27.45
2022-08-24T08:32:37.278Z,26.84
2022-08-24T08:35:05.956Z,26.85
2022-08-24T08:40:19.619Z,27.06
2022-08-24T08:43:03.214Z,26.75
2022-08-24T08:45:36.202Z,26.70
2022-08-24T08:48:36.127Z,26.25
2022-08-24T08:51:34.538Z,26.07
2022-08-24T08:54:18.347Z,26.25
2022-08-24T08:56:59.055Z,26.30
2022-08-24T08:59:35.253Z,25.69
2022-08-24T09:02:15.350Z,25.80
2022-08-24T09:05:04.419Z,25.50
2022-08-24T09:07:40.776Z,25.29
2022-08-24T09:10:27.592Z,25.83
2022-08-24T09:13:06.944Z,24.99
2022-08-24T09:15:39.700Z,25.17
2022-08-24T09:18:16.920Z,25.03
2022-08-24T09:20:58.903Z,24.77
2022-08-24T09:23:29.993Z,25.13
2022-08-24T09:26:02.387Z,24.99
2022-08-24T09:28:43.989Z,24.71
2022-08-24T09:31:25.152Z,23.89
2022-08-24T09:34:03.832Z,24.17
2022-08-24T09:36:43.078Z,23.89
2022-08-24T09:39:16.444Z,24.47
2022-08-24T09:41:53.407Z,24.05
2022-08-24T09:44:30.732Z,24.35
2022-08-24T09:47:22.081Z,23.67
2022-08-24T09:50:07.930Z,23.11
2022-08-24T09:52:48.130Z,23.59
2022-08-24T09:55:42.247Z,23.81
2022-08-24T09:58:16.567Z,23.82
2022-08-24T10:00:48.057Z,23.88
2022-08-24T10:03:23.856Z,23.92
2022-08-24T10:06:18.855Z,23.60
2022-08-24T10:09:00.255Z,23.29
2022-08-24T10:11:36.985Z,23.70
2022-08-24T10:14:10.697Z,22.69
2022-08-24T10:16:45.989Z,23.46
2022-08-24T10:19:28.939Z,23.33
2022-08-24T10:22:00.150Z,22.73
2022-08-24T10:24:39.031Z,22.65
2022-08-24T10:27:18.755Z,22.30
2022-08-24T10:30:01.105Z,22.91
2022-08-24T10:32:40.108Z,22.95
2022-08-24T10:35:11.555Z,22.38
2022-08-24T10:37:48.752Z,22.78
2022-08-24T10:40:28.124Z,22.54
2022-08-24T10:43:23.969Z,22.31
2022-08-24T10:46:05.501Z,22.75
2022-08-24T10:48:53.317Z,22.48
2022-08-24T10:51:30.280Z,22.31
2022-08-24T10:53:59.102Z,22.30
2022-08-24T10:56:31.623Z,21.52
2022-08-24T10:59:04.003Z,21.96
2022-08-24T11:01:33.849Z,21.97
2022-08-24T11:04:08.806Z,21.09
2022-08-24T11:06:38.932Z,20.89
2022-08-24T11:09:09.770Z,21.36
2022-08-24T11:11:40.397Z,19.97
2022-08-24T11:14:11.220Z,19.71
2022-08-24T11:16:40.808Z,19.59
2022-08-24T11:19:13.377Z,20.08
2022-08-24T11:21:44.233Z,20.50
2022-08-24T11:24:14.348Z,20.58
2022-08-24T11:26:55.484Z,20.71
2022-08-24T11:29:27.664Z,20.93
2022-08-24T11:31:55.665Z,20.87
2022-08-24T11:34:35.720Z,20.41
2022-08-24T11:37:04.316Z,20.98
2022-08-24T11:39:34.995Z,21.11
2022-08-24T11:42:07.871Z,20.62
2022-08-24T11:44:41.116Z,20.42
2022-08-24T11:47:28.882Z,20.79
2022-08-24T11:50:02.248Z,20.29
2022-08-24T11:52:38.007Z,20.78
2022-08-24T11:55:11.748Z,20.55
2022-08-24T11:57:47.571Z,20.89
2022-08-24T12:00:18.804Z,20.73
2022-08-24T12:02:56.568Z,20.15
2022-08-24T12:05:30.683Z,20.60
2022-08-24T12:08:11.847Z,20.05
2022-08-24T12:10:45.699Z,19.93
2022-08-24T12:16:21.752Z,20.16
2022-08-24T12:18:55.180Z,19.58
2022-08-24T12:21:26.986Z,19.26
2022-08-24T12:23:59.498Z,19.86
2022-08-24T12:26:31.056Z,19.26
2022-08-24T12:29:02.739Z,19.41
2022-08-24T12:31:35.920Z,19.44
2022-08-24T12:34:12.822Z,19.16
2022-08-24T12:36:48.125Z,18.96
2022-08-24T12:39:19.802Z,19.55
2022-08-24T12:41:55.094Z,19.29
2022-08-24T12:44:26.386Z,19.31
2022-08-24T12:46:55.224Z,18.64
2022-08-24T12:49:25.797Z,18.89
2022-08-24T12:52:03.960Z,18.96
2022-08-24T12:54:48.119Z,18.52
2022-08-24T12:57:33.538Z,18.54
2022-08-24T13:00:04.691Z,18.26
2022-08-24T13:02:37.079Z,18.85
2022-08-24T13:05:14.278Z,18.09
2022-08-24T13:07:47.043Z,18.38
2022-08-24T13:10:17.417Z,18.23
2022-08-24T13:12:54.483Z,18.44
2022-08-24T13:15:28.277Z,17.89
2022-08-24T13:18:02.670Z,17.94
2022-08-24T13:20:51.612Z,17.90
2022-08-24T13:23:22.690Z,18.05
2022-08-24T13:25:55.816Z,18.00
2022-08-24T13:28:37.457Z,17.76
2022-08-24T13:31:22.194Z,18.16
2022-08-24T13:33:53.067Z,16.45
2022-08-24T13:36:41.898Z,17.25
2022-08-24T13:39:16.578Z,17.98
2022-08-24T13:42:02.191Z,17.62
2022-08-24T13:44:38.965Z,17.38
2022-08-24T13:47:12.880Z,17.26
2022-08-24T13:49:46.705Z,17.63
2022-08-24T13:52:20.431Z,17.91
2022-08-24T13:55:09.540Z,17.66
2022-08-24T13:57:43.117Z,17.70
2022-08-24T14:00:15.032Z,17.85
2022-08-24T14:02:52.834Z,17.16
2022-08-24T14:05:28.195Z,17.71
2022-08-24T14:08:04.944Z,17.67
2022-08-24T14:10:43.373Z,17.92
2022-08-24T14:13:23.286Z,17.88
2022-08-24T14:16:20.524Z,17.99
2022-08-24T14:18:56.222Z,17.31
2022-08-24T14:21:26.206Z,17.92
2022-08-24T14:23:59.333Z,17.50
2022-08-24T14:26:47.802Z,17.93
2022-08-24T14:29:30.174Z,17.88
2022-08-24T14:32:25.616Z,17.55
2022-08-24T14:35:00.662Z,17.69
2022-08-24T14:37:35.498Z,17.89
2022-08-24T14:40:12.357Z,17.43
2022-08-24T14:42:42.670Z,17.29
2022-08-24T14:45:24.897Z,17.22
2022-08-24T14:48:00.898Z,17.69
2022-08-24T14:52:02.246Z,17.09
2022-08-24T14:56:24.385Z,16.08
2022-08-24T14:59:03.580Z,15.49
2022-08-24T15:01:44.697Z,15.68
2022-08-24T15:04:44.648Z,15.91
2022-08-24T15:07:29.348Z,14.94
2022-08-24T15:09:58.868Z,15.49
2022-08-24T15:12:37.024Z,14.45
2022-08-24T15:15:11.997Z,14.24
2022-08-24T15:17:53.593Z,13.29
2022-08-24T15:20:33.651Z,14.03
2022-08-24T15:23:08.455Z,14.30
2022-08-24T15:25:45.059Z,14.19
2022-08-24T15:28:23.255Z,14.10
2022-08-24T15:30:57.407Z,13.52
2022-08-24T15:33:26.338Z,13.67
2022-08-24T15:36:09.129Z,14.15
2022-08-24T15:38:39.178Z,14.27
2022-08-24T15:41:11.871Z,13.66
2022-08-24T15:43:46.505Z,13.62
2022-08-24T15:46:15.238Z,13.78
2022-08-24T15:48:47.937Z,14.47
2022-08-24T15:51:32.409Z,14.14
2022-08-24T15:54:15.990Z,13.48
2022-08-24T15:56:47.058Z,14.26
2022-08-24T15:59:28.948Z,14.11
2022-08-24T16:02:17.273Z,14.32
2022-08-24T16:04:48.922Z,14.46
2022-08-24T16:07:25.446Z,14.02
2022-08-24T16:10:03.753Z,14.58
2022-08-24T16:12:32.696Z,14.08
2022-08-24T16:15:14.140Z,13.83
2022-08-24T16:17:50.966Z,14.09
2022-08-24T16:20:32.980Z,14.80
2022-08-24T16:23:03.122Z,14.59
2022-08-24T16:25:32.920Z,14.84
2022-08-24T16:28:12.812Z,14.27
2022-08-24T16:30:51.642Z,14.67
2022-08-24T16:33:43.169Z,14.36
2022-08-24T16:36:14.343Z,14.57
2022-08-24T16:38:47.291Z,14.93
2022-08-24T16:41:18.626Z,15.17
2022-08-24T16:43:47.253Z,14.71
2022-08-24T16:46:21.887Z,14.60
2022-08-24T16:48:50.034Z,15.18
2022-08-24T16:51:18.044Z,14.73
2022-08-24T16:53:46.103Z,14.83
2022-08-24T16:56:16.697Z,15.26
2022-08-24T16:58:47.097Z,15.32
2022-08-24T17:01:17.523Z,14.86
2022-08-24T17:03:45.623Z,15.24
2022-08-24T17:06:14.767Z,15.59
2022-08-24T17:08:42.742Z,15.54
2022-08-24T17:11:10.663Z,15.61
2022-08-24T17:13:49.537Z,15.31
2022-08-24T17:16:21.357Z,15.74
2022-08-24T17:18:49.454Z,15.52
2022-08-24T17:21:17.480Z,15.91
2022-08-24T17:23:45.855Z,15.88
2022-08-24T17:26:20.299Z,15.82
2022-08-24T17:28:51.921Z,15.94
2022-08-24T17:31:21.515Z,15.41
2022-08-24T17:33:49.505Z,15.62
2022-08-24T17:36:19.534Z,15.71
2022-08-24T17:38:55.065Z,15.97
2022-08-24T17:41:25.721Z,16.63
2022-08-24T17:43:54.107Z,16.84
2022-08-24T17:46:23.994Z,16.74
2022-08-24T17:48:52.361Z,16.73
2022-08-24T17:51:20.641Z,17.08
2022-08-24T17:53:48.646Z,16.88
2022-08-24T17:56:17.472Z,17.24
2022-08-24T17:59:03.747Z,17.11
2022-08-24T18:01:33.415Z,17.17
2022-08-24T18:04:01.327Z,17.05
2022-08-24T18:06:29.651Z,17.00
2022-08-24T18:09:02.586Z,17.15
2022-08-24T18:11:30.963Z,17.58
2022-08-24T18:13:59.209Z,17.34
2022-08-24T18:16:28.399Z,17.59
2022-08-24T18:18:57.953Z,17.80
2022-08-24T18:21:25.806Z,18.06
2022-08-24T18:23:54.091Z,17.87
2022-08-24T18:26:28.276Z,18.18
2022-08-24T18:28:58.269Z,18.15
2022-08-24T18:31:29.326Z,18.75
2022-08-24T18:33:58.655Z,18.17
2022-08-24T18:36:26.589Z,18.43
2022-08-24T18:38:54.577Z,18.57
2022-08-24T18:41:24.971Z,18.18
2022-08-24T18:43:54.257Z,18.35
2022-08-24T18:46:29.129Z,18.82
2022-08-24T18:48:58.988Z,18.46
2022-08-24T18:51:34.145Z,18.76
2022-08-24T18:54:06.269Z,18.51
2022-08-24T18:56:34.229Z,18.96
2022-08-24T18:59:02.461Z,18.82
2022-08-24T19:01:30.923Z,18.83
2022-08-24T19:04:05.382Z,18.90
2022-08-24T19:06:38.154Z,18.93
2022-08-24T19:09:05.981Z,19.58
2022-08-24T19:11:33.915Z,19.34
2022-08-24T19:14:02.124Z,19.48
2022-08-24T19:16:30.451Z,19.62
2022-08-24T19:18:58.447Z,19.57
2022-08-24T19:21:31.209Z,19.96
2022-08-24T19:23:59.431Z,19.68
2022-08-24T19:26:27.484Z,20.14
2022-08-24T19:28:57.124Z,20.00
2022-08-24T19:31:27.095Z,20.43
2022-08-24T19:33:59.886Z,20.50
2022-08-24T19:36:32.942Z,20.33
2022-08-24T19:39:01.112Z,20.18
2022-08-24T19:41:36.543Z,20.59
2022-08-24T19:44:27.296Z,20.43
2022-08-24T19:46:56.880Z,20.66
2022-08-24T19:49:25.304Z,20.74
2022-08-24T19:51:55.676Z,20.84
2022-08-24T19:54:24.567Z,20.63
2022-08-24T19:56:54.329Z,21.02
2022-08-24T19:59:27.432Z,21.05
2022-08-24T20:01:55.468Z,20.86
2022-08-24T20:04:24.014Z,20.86
2022-08-24T20:06:52.112Z,21.09
2022-08-24T20:09:23.599Z,21.18
2022-08-24T20:11:51.688Z,21.38
2022-08-24T20:14:19.616Z,21.21
2022-08-24T20:16:47.762Z,21.48
2022-08-24T20:19:15.721Z,21.35
2022-08-24T20:21:43.639Z,21.41
2022-08-24T20:24:11.769Z,21.40
2022-08-24T20:26:43.478Z,22.01
2022-08-24T20:29:12.580Z,21.64
2022-08-24T20:31:41.503Z,21.51
2022-08-24T20:34:09.617Z,21.69
2022-08-24T20:36:39.734Z,21.82
2022-08-24T20:39:10.741Z,21.54
2022-08-24T20:41:40.574Z,21.83
2022-08-24T20:44:10.315Z,21.77
2022-08-24T20:46:39.166Z,22.02
2022-08-24T20:49:08.244Z,21.88
2022-08-24T20:51:43.371Z,21.76
2022-08-24T20:54:12.066Z,22.00
2022-08-24T20:56:40.308Z,22.02
2022-08-24T20:59:11.801Z,22.21
2022-08-24T21:01:42.856Z,22.01
2022-08-24T21:04:11.502Z,22.00
2022-08-24T21:06:41.356Z,21.80
2022-08-24T21:09:12.750Z,21.85
2022-08-24T21:11:43.215Z,21.93
2022-08-24T21:14:12.870Z,22.08
2022-08-24T21:16:44.368Z,22.20
2022-08-24T21:19:17.630Z,22.07
2022-08-24T21:21:47.259Z,21.88
2022-08-24T21:24:16.457Z,22.15
2022-08-24T21:26:44.531Z,22.15
2022-08-24T21:29:14.125Z,22.15
2022-08-24T21:31:42.516Z,22.21
2022-08-24T21:34:28.159Z,22.32
2022-08-24T21:36:56.151Z,22.38
2022-08-24T21:39:24.543Z,21.96
2022-08-24T21:41:53.463Z,22.24
2022-08-24T21:44:22.732Z,22.38
2022-08-24T21:46:51.851Z,22.30
2022-08-24T21:49:20.134Z,22.38
2022-08-24T21:51:48.197Z,22.32
2022-08-24T21:54:16.045Z,22.44
2022-08-24T21:56:44.279Z,22.27
2022-08-24T21:59:12.240Z,22.39
2022-08-24T22:01:41.940Z,22.73
2022-08-24T22:04:11.233Z,22.53
2022-08-24T22:06:39.549Z,22.46
2022-08-24T22:09:08.717Z,22.45
2022-08-24T22:11:37.139Z,22.41
2022-08-24T22:14:05.434Z,22.46
2022-08-24T22:16:33.736Z,22.53
2022-08-24T22:19:07.021Z,22.56
2022-08-24T22:21:36.450Z,22.57
2022-08-24T22:24:05.158Z,22.30
2022-08-24T22:26:33.401Z,22.53
2022-08-24T22:29:02.099Z,22.58
2022-08-24T22:31:32.223Z,22.26
2022-08-24T22:34:02.837Z,22.37
2022-08-24T22:36:32.247Z,22.27
2022-08-24T22:39:01.194Z,22.30
2022-08-24T22:41:30.456Z,22.29
2022-08-24T22:44:17.976Z,22.25
2022-08-24T22:46:46.366Z,22.15
2022-08-24T22:49:14.581Z,22.21
2022-08-24T22:51:43.834Z,22.11
2022-08-24T22:54:12.428Z,22.04
2022-08-24T22:56:43.224Z,22.04
2022-08-24T22:59:16.566Z,21.80
2022-08-24T23:01:47.255Z,21.94
2022-08-24T23:04:17.394Z,21.95
2022-08-24T23:06:47.333Z,21.90
2022-08-24T23:09:15.233Z,21.96
2022-08-24T23:11:43.462Z,21.87
2022-08-24T23:14:12.371Z,21.71
2022-08-24T23:16:44.598Z,21.82
2022-08-24T23:19:30.551Z,21.88
2022-08-24T23:21:59.924Z,21.71
2022-08-24T23:24:28.354Z,21.99
2022-08-24T23:26:56.407Z,22.11
2022-08-24T23:29:24.557Z,21.70
2022-08-24T23:31:53.617Z,21.81
2022-08-24T23:34:23.007Z,21.58
2022-08-24T23:36:51.794Z,21.96
2022-08-24T23:39:21.416Z,21.60
2022-08-24T23:41:50.855Z,21.79
2022-08-24T23:44:20.844Z,21.74
2022-08-24T23:46:48.810Z,21.99
2022-08-24T23:49:19.791Z,21.99
2022-08-24T23:51:48.566Z,21.96
2022-08-24T23:54:17.751Z,21.80
2022-08-24T23:56:48.464Z,22.07
2022-08-24T23:59:19.689Z,21.69
